Time;durP1;ratioP1;P1;durP2;ratioP2;P2;SDS_P1;SDS_P2;PMS_P1;PMS_P2;Temp;Humidity;BMP_temperature;BMP_pressure;BME280_temperature;BME280_humidity;BME280_pressure;Samples;Min_cycle;Max_cycle;Signal;HPM_P1;HPM_P2
2023/10/01 00:00:08;;;;;;;;;;;;;;;21.02;30.29;97948.53;4957433;29;1066;-76
2023/10/01 00:02:34;;;;;;;;;;;;;;;20.89;30.30;97942.00;4957374;29;980;-75
2023/10/01 00:05:00;;;;;;;;;;;;;;;20.92;30.56;97941.09;4960020;28;1131;-75
2023/10/01 00:07:28;;;;;;;;;;;;;;;20.85;30.42;97942.06;4957264;29;1007;-76
2023/10/01 00:09:53;;;;;;;;;;;;;;;21.06;30.01;97940.75;4957188;29;973;-75
2023/10/01 00:12:19;;;;;;;;;;;;;;;20.94;30.12;97933.78;4962438;28;1983;-76
2023/10/01 00:14:44;;;;;;;;;;;;;;;21.00;30.25;97931.22;4976631;28;1297;-76
2023/10/01 00:17:10;;;;;;;;;;;;;;;21.03;30.12;97935.97;4975965;28;1038;-75
2023/10/01 00:19:37;;;;;;;;;;;;;;;20.75;30.71;97938.25;4960174;28;957;-76
2023/10/01 00:22:03;;;;;;;;;;;;;;;21.12;30.14;97933.31;4976393;28;964;-75
2023/10/01 00:24:29;;;;;;;;;;;;;;;21.19;29.68;97921.81;4960113;28;996;-76
2023/10/01 00:26:54;;;;;;;;;;;;;;;20.89;30.35;97930.69;4957052;29;947;-75
2023/10/01 00:29:21;;;;;;;;;;;;;;;21.09;30.08;97920.06;4957175;29;927;-76
2023/10/01 00:31:49;;;;;;;;;;;;;;;21.14;30.04;97925.19;4957084;29;2035;-75
2023/10/01 00:34:15;;;;;;;;;;;;;;;21.16;29.75;97919.88;4934301;29;1125;-75
2023/10/01 00:36:43;;;;;;;;;;;;;;;20.89;30.45;97920.16;4934508;29;1160;-75
2023/10/01 00:39:09;;;;;;;;;;;;;;;21.02;29.84;97917.41;4949525;29;1299;-75
2023/10/01 00:41:34;;;;;;;;;;;;;;;20.85;30.46;97910.19;4953745;29;1222;-75
2023/10/01 00:44:01;;;;;;;;;;;;;;;20.88;30.29;97917.75;4953657;29;1172;-75
2023/10/01 00:46:26;;;;;;;;;;;;;;;21.03;29.89;97921.81;4953434;29;980;-75
2023/10/01 00:48:52;;;;;;;;;;;;;;;20.97;29.77;97920.75;4937625;29;1016;-75
2023/10/01 00:51:20;;;;;;;;;;;;;;;20.96;30.08;97924.84;4918221;29;2001;-75
2023/10/01 00:53:45;;;;;;;;;;;;;;;20.75;30.20;97929.78;4918332;29;1259;-75
2023/10/01 00:56:11;;;;;;;;;;;;;;;20.81;30.10;97925.19;4918408;29;1227;-76
2023/10/01 00:58:37;;;;;;;;;;;;;;;20.89;30.28;97922.19;4936926;29;881;-75
2023/10/01 01:01:07;;;;;;;;;;;;;;;21.04;29.76;97923.44;4902319;29;1311;-75
2023/10/01 01:03:34;;;;;;;;;;;;;;;20.95;29.67;97917.59;4902468;29;1136;-75
2023/10/01 01:08:33;;;;;;;;;;;;;;;20.90;29.97;97915.31;4921935;29;1008;-75
2023/10/01 01:11:01;;;;;;;;;;;;;;;20.79;30.06;97910.72;4922163;29;1899;-75
2023/10/01 01:13:28;;;;;;;;;;;;;;;20.55;30.54;97912.09;4905418;29;1061;-75
2023/10/01 01:15:57;;;;;;;;;;;;;;;20.72;30.36;97905.22;4921607;29;1041;-76
2023/10/01 01:18:26;;;;;;;;;;;;;;;21.05;29.72;97902.38;4905785;29;976;-75
2023/10/01 01:20:58;;;;;;;;;;;;;;;21.08;29.63;97910.75;4921436;29;1193;-75
2023/10/01 01:23:23;;;;;;;;;;;;;;;20.99;29.76;97901.34;4919935;29;956;-76
2023/10/01 01:25:52;;;;;;;;;;;;;;;20.94;30.18;97902.66;4921216;29;1014;-76
2023/10/01 01:28:32;;;;;;;;;;;;;;;21.02;29.94;97906.88;4936430;29;1100;-76
2023/10/01 01:30:59;;;;;;;;;;;;;;;20.76;29.99;97900.25;4920363;29;1970;-76
2023/10/01 01:33:31;;;;;;;;;;;;;;;20.99;29.71;97901.34;4936792;29;973;-75
2023/10/01 01:35:57;;;;;;;;;;;;;;;20.97;29.67;97909.44;4922229;29;970;-76
2023/10/01 01:38:23;;;;;;;;;;;;;;;21.02;29.66;97906.88;4920932;29;1137;-75
2023/10/01 01:40:51;;;;;;;;;;;;;;;20.89;29.73;97913.72;4921261;29;979;-76
2023/10/01 01:43:21;;;;;;;;;;;;;;;21.05;29.42;97905.22;4921195;29;1176;-75
2023/10/01 01:45:54;;;;;;;;;;;;;;;20.83;30.12;97895.66;4936748;29;970;-75
2023/10/01 01:50:57;;;;;;;;;;;;;;;20.72;30.10;97905.22;4922945;29;1899;-75
2023/10/01 01:53:26;;;;;;;;;;;;;;;20.96;30.00;97896.56;4952494;29;923;-75
2023/10/01 01:55:56;;;;;;;;;;;;;;;20.88;30.28;97912.09;4936472;29;1209;-75
2023/10/01 01:58:24;;;;;;;;;;;;;;;20.92;29.92;97907.94;4936668;29;1298;-75
2023/10/01 02:01:08;;;;;;;;;;;;;;;20.73;30.42;97911.69;4938705;28;1384;-75
2023/10/01 02:03:46;;;;;;;;;;;;;;;21.00;29.81;97914.22;4975135;28;1234;-75
2023/10/01 02:06:11;;;;;;;;;;;;;;;21.01;29.85;97910.16;4983985;28;1158;-75
2023/10/01 02:08:56;;;;;;;;;;;;;;;20.70;30.30;97916.16;4991128;28;1204;-76
2023/10/01 02:11:22;;;;;;;;;;;;;;;20.75;30.41;97921.31;4988920;28;1903;-76
2023/10/01 02:13:50;;;;;;;;;;;;;;;20.69;30.49;97920.25;4962037;28;1427;-76
2023/10/01 02:16:23;;;;;;;;;;;;;;;20.93;29.98;97920.06;4946489;28;1131;-76
2023/10/01 02:21:42;;;;;;;;;;;;;;;20.76;30.09;97905.91;4981088;28;966;-76
2023/10/01 02:24:11;;;;;;;;;;;;;;;20.64;30.12;97911.50;4952422;29;1097;-75
2023/10/01 02:26:38;;;;;;;;;;;;;;;20.81;30.23;97913.88;4955334;29;1010;-76
2023/10/01 02:29:05;;;;;;;;;;;;;;;21.01;29.72;97905.28;4955452;29;926;-75
2023/10/01 02:31:39;;;;;;;;;;;;;;;20.87;30.01;97916.16;4955432;29;1903;-75
2023/10/01 02:34:08;;;;;;;;;;;;;;;20.84;29.96;97919.91;4955855;29;964;-76
2023/10/01 02:36:36;;;;;;;;;;;;;;;20.86;29.94;97918.22;4956022;29;1063;-76
2023/10/01 02:39:11;;;;;;;;;;;;;;;20.72;30.24;97925.00;4944558;28;1137;-75
2023/10/01 02:41:40;;;;;;;;;;;;;;;20.77;30.08;97916.00;4996088;28;1334;-76
2023/10/01 02:44:10;;;;;;;;;;;;;;;20.93;29.93;97914.41;4997669;28;989;-76
2023/10/01 02:46:37;;;;;;;;;;;;;;;20.74;30.34;97914.06;4981656;28;1540;-75
2023/10/01 02:49:04;;;;;;;;;;;;;;;21.01;29.94;97916.63;4997588;28;1020;-76
2023/10/01 02:51:37;;;;;;;;;;;;;;;20.93;30.12;97908.75;4997484;28;1973;-75
2023/10/01 02:54:05;;;;;;;;;;;;;;;21.03;29.98;97919.00;4981360;28;1109;-75
2023/10/01 02:56:33;;;;;;;;;;;;;;;20.91;30.31;97908.41;4978273;28;1051;-75
2023/10/01 02:59:10;;;;;;;;;;;;;;;20.70;30.94;97907.69;4977915;28;1002;-75
2023/10/01 03:01:39;;;;;;;;;;;;;;;21.03;30.58;97907.69;4978118;28;1192;-75
2023/10/01 03:04:16;;;;;;;;;;;;;;;21.14;30.33;97913.06;4942418;29;1271;-75
2023/10/01 03:06:55;;;;;;;;;;;;;;;21.35;30.36;97917.38;4958191;29;1071;-75
2023/10/01 03:09:31;;;;;;;;;;;;;;;21.02;31.08;97906.88;4958495;29;934;-75
2023/10/01 03:14:59;;;;;;;;;;;;;;;21.07;30.97;97908.38;4957951;29;1021;-75
2023/10/01 03:17:27;;;;;;;;;;;;;;;21.22;30.92;97914.47;4958279;29;1475;-76
2023/10/01 03:19:53;;;;;;;;;;;;;;;21.01;31.19;97916.63;4957962;28;1282;-75
2023/10/01 03:22:23;;;;;;;;;;;;;;;20.93;31.24;97908.75;4974347;28;1004;-75
2023/10/01 03:24:49;;;;;;;;;;;;;;;21.05;31.41;97910.88;4957536;29;1061;-76
2023/10/01 03:29:49;;;;;;;;;;;;;;;20.92;31.66;97909.97;5002342;28;1258;-76
2023/10/01 03:32:27;;;;;;;;;;;;;;;20.94;31.69;97910.34;4964126;28;1898;-77
2023/10/01 03:34:53;;;;;;;;;;;;;;;21.31;31.17;97923.16;5018565;28;1080;-76
2023/10/01 03:37:22;;;;;;;;;;;;;;;20.84;31.76;97919.91;5038504;28;858;-76
2023/10/01 03:39:51;;;;;;;;;;;;;;;21.09;31.33;97920.06;5027507;28;1247;-76
2023/10/01 03:42:17;;;;;;;;;;;;;;;21.28;31.14;97919.13;5040745;28;1360;-76
2023/10/01 03:47:29;;;;;;;;;;;;;;;21.23;31.22;97916.06;5040625;28;1215;-77
2023/10/01 03:49:55;;;;;;;;;;;;;;;21.23;30.97;97919.69;5040460;28;1069;-77
2023/10/01 03:52:21;;;;;;;;;;;;;;;21.18;31.33;97925.06;5024431;28;1986;-77
2023/10/01 03:54:54;;;;;;;;;;;;;;;21.08;31.37;97921.28;5040171;28;952;-76
2023/10/01 03:57:19;;;;;;;;;;;;;;;21.26;30.95;97918.78;5057958;28;999;-76
2023/10/01 03:59:53;;;;;;;;;;;;;;;21.45;30.82;97919.13;5023910;28;920;-77
2023/10/01 04:02:42;;;;;;;;;;;;;;;20.99;31.55;97923.97;5041318;28;1001;-77
2023/10/01 04:08:11;;;;;;;;;;;;;;;21.24;31.08;97935.44;4995896;28;1069;-76
2023/10/01 04:10:38;;;;;;;;;;;;;;;21.40;31.06;97926.16;4996167;28;1223;-77
2023/10/01 04:13:13;;;;;;;;;;;;;;;21.22;31.29;97932.25;4980051;28;1967;-76
2023/10/01 04:15:45;;;;;;;;;;;;;;;21.03;31.60;97930.31;4980168;28;1155;-77
2023/10/01 04:20:47;;;;;;;;;;;;;;;20.74;31.80;97935.88;4995994;28;942;-77
2023/10/01 04:23:24;;;;;;;;;;;;;;;21.18;31.37;97937.19;4995356;28;1090;-76
2023/10/01 04:25:54;;;;;;;;;;;;;;;21.02;31.58;97931.56;4995776;28;973;-77
2023/10/01 04:28:20;;;;;;;;;;;;;;;21.20;31.21;97933.94;4995741;28;951;-77
2023/10/01 04:30:51;;;;;;;;;;;;;;;21.39;30.84;97930.19;4996129;28;1903;-76
2023/10/01 04:33:28;;;;;;;;;;;;;;;21.37;30.83;97940.38;4963729;28;1446;-76
2023/10/01 04:35:58;;;;;;;;;;;;;;;21.03;31.75;97941.63;4980723;28;998;-77
2023/10/01 04:38:35;;;;;;;;;;;;;;;21.14;31.26;97933.69;4979230;28;968;-76
2023/10/01 04:41:03;;;;;;;;;;;;;;;21.32;31.07;97944.56;4966161;28;1278;-76
2023/10/01 04:43:35;;;;;;;;;;;;;;;21.00;31.70;97943.31;5034005;28;1051;-76
2023/10/01 04:46:00;;;;;;;;;;;;;;;21.24;31.33;97945.94;4982856;28;1220;-76
2023/10/01 04:48:26;;;;;;;;;;;;;;;21.29;30.95;97949.03;4998635;28;1068;-77
2023/10/01 04:50:54;;;;;;;;;;;;;;;21.11;31.68;97943.03;4998919;28;1906;-77
2023/10/01 04:53:21;;;;;;;;;;;;;;;20.94;31.76;97944.28;4998794;28;974;-77
2023/10/01 04:56:05;;;;;;;;;;;;;;;21.15;31.68;97949.41;4969032;28;1271;-76
2023/10/01 04:58:37;;;;;;;;;;;;;;;21.32;31.37;97948.19;5036640;28;1419;-77
2023/10/01 05:01:05;;;;;;;;;;;;;;;21.29;31.22;97942.56;5036547;28;1175;-76
2023/10/01 05:03:39;;;;;;;;;;;;;;;21.19;31.47;97943.63;5038268;28;1217;-76
2023/10/01 05:06:05;;;;;;;;;;;;;;;21.21;31.71;97953.28;5054424;28;1163;-76
2023/10/01 05:08:38;;;;;;;;;;;;;;;21.21;31.47;97955.31;5056173;28;1277;-76
2023/10/01 05:11:04;;;;;;;;;;;;;;;21.43;31.19;97949.94;5036474;28;1906;-77
2023/10/01 05:13:31;;;;;;;;;;;;;;;21.27;31.51;97948.69;5038150;28;1294;-78
2023/10/01 05:15:56;;;;;;;;;;;;;;;21.26;31.31;97949.13;5056397;28;1205;-78
2023/10/01 05:18:22;;;;;;;;;;;;;;;21.34;31.46;97950.56;5055960;28;1285;-77
2023/10/01 05:20:48;;;;;;;;;;;;;;;21.57;30.82;97947.50;5038308;28;1203;-78
2023/10/01 05:23:17;;;;;;;;;;;;;;;21.49;31.01;97951.75;5038043;28;1289;-77
2023/10/01 05:25:45;;;;;;;;;;;;;;;21.57;30.89;97941.06;5056024;28;1324;-78
2023/10/01 05:28:23;;;;;;;;;;;;;;;21.57;31.29;97952.38;5035481;28;1167;-78
2023/10/01 05:30:57;;;;;;;;;;;;;;;21.48;31.34;97950.19;4997395;28;1998;-78
2023/10/01 05:33:24;;;;;;;;;;;;;;;21.39;31.75;97940.72;4981983;28;1384;-78
2023/10/01 05:35:52;;;;;;;;;;;;;;;21.49;31.77;97950.97;4998043;28;1011;-78
2023/10/01 05:38:19;;;;;;;;;;;;;;;21.63;31.44;97952.63;4975044;28;974;-78
2023/10/01 05:40:44;;;;;;;;;;;;;;;21.43;31.80;97952.75;4975089;28;1378;-77
2023/10/01 05:43:13;;;;;;;;;;;;;;;21.05;31.91;97891.06;4942736;28;1138;-78
2023/10/01 05:45:41;;;;;;;;;;;;;;;21.37;32.09;97960.19;4959527;28;958;-78
2023/10/01 05:48:10;;;;;;;;;;;;;;;21.44;31.90;97951.50;4958858;28;1001;-78
2023/10/01 05:50:39;;;;;;;;;;;;;;;21.25;32.20;97965.31;4959608;28;1518;-78
2023/10/01 05:53:05;;;;;;;;;;;;;;;21.61;31.72;97958.75;4958895;28;1969;-78
2023/10/01 05:55:34;;;;;;;;;;;;;;;21.36;31.86;97952.97;4958774;28;970;-78
2023/10/01 05:58:21;;;;;;;;;;;;;;;21.32;32.18;97958.69;4974714;28;991;-78
2023/10/01 06:00:50;;;;;;;;;;;;;;;21.35;32.25;97945.69;4974861;28;1030;-78
2023/10/01 06:03:17;;;;;;;;;;;;;;;21.60;31.63;97951.47;4959537;28;984;-78
2023/10/01 06:05:46;;;;;;;;;;;;;;;21.66;31.48;97958.19;4974906;28;1180;-78
2023/10/01 06:08:15;;;;;;;;;;;;;;;21.40;31.97;97953.63;4980733;28;901;-78
2023/10/01 06:10:47;;;;;;;;;;;;;;;21.74;31.49;97951.09;5038572;28;896;-78
2023/10/01 06:13:14;;;;;;;;;;;;;;;21.46;31.92;97957.53;5038003;28;882;-78
2023/10/01 06:15:40;;;;;;;;;;;;;;;21.55;31.79;97961.34;5056490;28;925;-78
2023/10/01 06:18:05;;;;;;;;;;;;;;;21.40;31.98;97962.13;5042079;28;1002;-78
2023/10/01 06:20:33;;;;;;;;;;;;;;;21.55;31.61;97978.31;5059664;28;1043;-78
2023/10/01 06:22:59;;;;;;;;;;;;;;;21.19;32.27;97972.75;5042040;28;865;-78
2023/10/01 06:25:37;;;;;;;;;;;;;;;21.22;32.26;97966.19;5041640;28;1055;-78
2023/10/01 06:28:09;;;;;;;;;;;;;;;21.14;32.40;97976.13;5043445;28;920;-78
2023/10/01 06:30:40;;;;;;;;;;;;;;;21.41;32.07;97969.41;5037118;28;957;-78
2023/10/01 06:33:09;;;;;;;;;;;;;;;21.40;32.14;97973.44;5037186;28;1910;-78
2023/10/01 06:35:37;;;;;;;;;;;;;;;21.25;32.40;97979.47;5037288;28;1069;-78
2023/10/01 06:38:04;;;;;;;;;;;;;;;21.39;32.26;97980.34;5037264;28;1091;-78
2023/10/01 06:40:30;;;;;;;;;;;;;;;21.49;31.96;97984.94;5037354;28;1102;-78
2023/10/01 06:42:58;;;;;;;;;;;;;;;21.49;32.18;97984.94;5037013;28;1034;-78
2023/10/01 06:45:38;;;;;;;;;;;;;;;21.46;31.99;97985.84;5037037;28;965;-79
2023/10/01 06:48:15;;;;;;;;;;;;;;;21.26;32.26;97983.88;5036761;28;971;-78
2023/10/01 06:50:40;;;;;;;;;;;;;;;21.48;32.29;97989.81;5036790;28;1025;-78
2023/10/01 06:53:07;;;;;;;;;;;;;;;21.68;31.93;97991.72;5036803;28;1914;-78
2023/10/01 06:55:33;;;;;;;;;;;;;;;21.46;32.17;97997.16;5020198;28;1001;-78
2023/10/01 06:58:05;;;;;;;;;;;;;;;21.68;31.66;97997.41;5037045;28;1038;-78
2023/10/01 07:00:34;;;;;;;;;;;;;;;21.53;32.20;97999.81;5022122;28;977;-78
2023/10/01 07:03:17;;;;;;;;;;;;;;;21.71;31.80;98002.97;5041507;28;905;-78
2023/10/01 07:05:46;;;;;;;;;;;;;;;21.50;31.93;97997.84;5037614;28;1116;-78
2023/10/01 07:08:16;;;;;;;;;;;;;;;21.46;32.28;97997.97;5037665;28;987;-78
2023/10/01 07:10:42;;;;;;;;;;;;;;;21.46;32.06;98002.84;5039272;28;950;-78
2023/10/01 07:13:10;;;;;;;;;;;;;;;21.74;31.83;98007.72;5037385;28;1918;-78
2023/10/01 07:15:43;;;;;;;;;;;;;;;21.75;31.45;98006.47;5037802;28;930;-78
2023/10/01 07:18:19;;;;;;;;;;;;;;;21.62;31.78;98010.50;5038883;28;921;-79
2023/10/01 07:20:49;;;;;;;;;;;;;;;21.59;32.06;98000.84;5037916;28;1126;-78
2023/10/01 07:23:14;;;;;;;;;;;;;;;21.66;31.86;98000.69;5038887;28;919;-78
2023/10/01 07:25:43;;;;;;;;;;;;;;;21.66;31.56;98003.50;5037632;28;937;-78
2023/10/01 07:28:18;;;;;;;;;;;;;;;21.68;31.75;98003.84;5036737;28;906;-78
2023/10/01 07:30:46;;;;;;;;;;;;;;;21.63;31.72;98006.44;5005438;28;1781;-78
2023/10/01 07:33:20;;;;;;;;;;;;;;;21.84;31.50;98000.97;5037264;28;1973;-78
2023/10/01 07:35:58;;;;;;;;;;;;;;;21.64;31.81;98003.16;5037220;28;1036;-78
2023/10/01 07:38:25;;;;;;;;;;;;;;;21.53;31.93;97999.81;5037070;28;946;-78
2023/10/01 07:43:46;;;;;;;;;;;;;;;21.74;31.38;97996.41;4964420;28;957;-78
2023/10/01 07:46:14;;;;;;;;;;;;;;;21.51;32.04;97993.81;4961137;28;1059;-78
2023/10/01 07:48:46;;;;;;;;;;;;;;;21.76;31.59;98007.28;4976867;28;1313;-78
2023/10/01 07:51:22;;;;;;;;;;;;;;;21.82;31.34;98003.47;4976981;28;1898;-78
2023/10/01 07:53:49;;;;;;;;;;;;;;;21.87;31.32;98009.84;4975150;28;981;-78
2023/10/01 07:56:16;;;;;;;;;;;;;;;21.74;31.74;98002.06;4977081;28;1030;-78
2023/10/01 07:58:48;;;;;;;;;;;;;;;21.83;31.33;98010.72;4976744;28;961;-79
2023/10/01 08:01:59;;;;;;;;;;;;;;;21.85;31.47;98008.22;4976635;28;1038;-78
2023/10/01 08:04:08;;;;;;;;;;;;;;;21.61;31.84;98014.59;4975368;28;1194;-78
2023/10/01 08:06:43;;;;;;;;;;;;;;;21.68;31.62;98009.50;4976301;28;1071;-78
2023/10/01 08:09:13;;;;;;;;;;;;;;;21.61;32.03;98004.06;4976416;28;1028;-78
2023/10/01 08:12:05;;;;;;;;;;;;;;;21.62;31.74;98011.31;4976834;28;1966;-78
2023/10/01 08:14:33;;;;;;;;;;;;;;;21.96;31.36;98007.94;4976193;28;1062;-77
2023/10/01 08:17:00;;;;;;;;;;;;;;;21.85;31.39;98008.22;4976424;28;1159;-78
2023/10/01 08:19:41;;;;;;;;;;;;;;;21.89;31.40;98007.34;4984364;28;1071;-78
2023/10/01 08:22:13;;;;;;;;;;;;;;;21.61;31.82;98006.88;5015262;28;983;-78
2023/10/01 08:24:39;;;;;;;;;;;;;;;21.66;31.64;98012.00;5000017;28;937;-78
2023/10/01 08:27:05;;;;;;;;;;;;;;;21.84;31.48;98020.81;4999120;28;894;-78
2023/10/01 08:29:59;;;;;;;;;;;;;;;21.75;31.77;98020.63;5015151;28;963;-78
2023/10/01 08:32:22;;;;;;;;;;;;;;;21.79;31.69;98018.50;4985424;28;1906;-78
2023/10/01 08:35:01;;;;;;;;;;;;;;;21.79;31.48;98029.84;5027776;28;1016;-78
2023/10/01 08:37:31;;;;;;;;;;;;;;;21.95;31.15;98028.22;5036376;28;828;-79
2023/10/01 08:39:57;;;;;;;;;;;;;;;21.91;31.10;98031.13;5019385;28;942;-78
2023/10/01 08:42:28;;;;;;;;;;;;;;;21.54;31.78;98033.31;5003190;28;1147;-78
2023/10/01 08:45:08;;;;;;;;;;;;;;;21.58;31.44;98033.25;5036052;28;946;-78
2023/10/01 08:47:37;;;;;;;;;;;;;;;21.88;31.21;98039.75;5036454;28;976;-78
2023/10/01 08:50:19;;;;;;;;;;;;;;;21.75;31.36;98034.00;5035944;28;1235;-78
2023/10/01 08:52:57;;;;;;;;;;;;;;;21.71;31.36;98028.47;5004213;28;1911;-78
2023/10/01 08:55:23;;;;;;;;;;;;;;;21.63;31.44;98035.53;5020707;28;1277;-78
2023/10/01 08:57:55;;;;;;;;;;;;;;;21.59;31.80;98037.66;5035341;28;793;-78
2023/10/01 09:00:24;;;;;;;;;;;;;;;21.68;31.31;98035.00;5035879;28;871;-78
2023/10/01 09:02:50;;;;;;;;;;;;;;;21.73;31.29;98045.78;5035960;28;934;-78
2023/10/01 09:05:24;;;;;;;;;;;;;;;21.88;31.39;98045.41;5019571;28;1283;-78
2023/10/01 09:07:51;;;;;;;;;;;;;;;21.92;31.21;98038.41;5037135;28;934;-78
2023/10/01 09:10:18;;;;;;;;;;;;;;;21.82;31.34;98048.78;4995198;28;947;-78
2023/10/01 09:12:46;;;;;;;;;;;;;;;21.68;31.44;98043.50;4979131;28;1887;-78
2023/10/01 09:15:27;;;;;;;;;;;;;;;21.93;31.03;98047.69;4947249;28;1121;-78
2023/10/01 09:17:59;;;;;;;;;;;;;;;22.02;30.70;98042.16;4963015;28;988;-78
2023/10/01 09:20:39;;;;;;;;;;;;;;;21.73;31.31;98045.78;4979825;28;926;-78
2023/10/01 09:23:05;;;;;;;;;;;;;;;21.77;31.51;98043.66;4978839;28;1285;-78
2023/10/01 09:25:34;;;;;;;;;;;;;;;21.64;31.44;98039.94;4963000;28;1287;-78
2023/10/01 09:28:29;;;;;;;;;;;;;;;21.59;31.87;98043.31;4959235;28;1016;-78
2023/10/01 09:31:01;;;;;;;;;;;;;;;21.63;31.48;98035.53;4961476;28;1106;-77
2023/10/01 09:33:27;;;;;;;;;;;;;;;21.53;31.79;98039.44;4943869;28;966;-78
2023/10/01 09:36:03;;;;;;;;;;;;;;;21.50;31.92;98048.81;4959723;28;934;-76
2023/10/01 09:38:28;;;;;;;;;;;;;;;21.56;31.79;98049.88;4945455;28;1038;-75
2023/10/01 09:40:57;;;;;;;;;;;;;;;21.80;31.56;98048.41;4996195;28;959;-77
2023/10/01 09:43:27;;;;;;;;;;;;;;;21.56;31.77;98053.50;5017415;28;917;-76
2023/10/01 09:45:53;;;;;;;;;;;;;;;21.64;31.64;98056.94;4981801;28;1128;-77
2023/10/01 09:48:32;;;;;;;;;;;;;;;21.52;31.66;98047.13;5000524;28;1294;-76
2023/10/01 09:51:00;;;;;;;;;;;;;;;21.50;31.76;98043.97;5033909;28;1914;-76
2023/10/01 09:53:31;;;;;;;;;;;;;;;21.70;31.65;98045.88;4988354;28;1274;-76
2023/10/01 09:55:57;;;;;;;;;;;;;;;21.65;31.48;98054.91;5003010;28;1294;-76
2023/10/01 09:58:28;;;;;;;;;;;;;;;21.73;31.47;98057.13;5007182;28;1254;-76
2023/10/01 10:00:53;;;;;;;;;;;;;;;21.83;30.98;98056.03;5015520;28;1115;-77
2023/10/01 10:03:19;;;;;;;;;;;;;;;21.63;31.74;98046.88;5039700;28;1135;-77
2023/10/01 10:05:46;;;;;;;;;;;;;;;21.52;31.69;98035.81;5048404;28;1189;-77
2023/10/01 10:08:26;;;;;;;;;;;;;;;21.55;31.65;98040.59;5014913;28;1381;-77
2023/10/01 10:10:55;;;;;;;;;;;;;;;21.84;31.09;98046.28;5027454;28;1183;-77
2023/10/01 10:13:33;;;;;;;;;;;;;;;21.66;31.55;98046.00;5040498;28;1336;-77
2023/10/01 10:16:00;;;;;;;;;;;;;;;21.70;31.31;98032.50;5038543;28;1423;-77
2023/10/01 10:18:25;;;;;;;;;;;;;;;21.59;31.73;98046.16;5025099;28;1194;-77
2023/10/01 10:20:57;;;;;;;;;;;;;;;21.62;31.78;98038.81;5059768;28;1316;-77
2023/10/01 10:23:29;;;;;;;;;;;;;;;21.70;31.42;98038.16;5041840;28;1409;-77
2023/10/01 10:26:14;;;;;;;;;;;;;;;21.52;31.71;98029.34;5026352;28;1202;-77
2023/10/01 10:28:58;;;;;;;;;;;;;;;21.66;31.55;98034.66;5041349;28;1072;-77
2023/10/01 10:31:30;;;;;;;;;;;;;;;21.64;31.74;98037.13;5041747;28;1985;-77
2023/10/01 10:34:21;;;;;;;;;;;;;;;21.76;31.59;98035.59;5041949;28;1123;-77
2023/10/01 10:36:50;;;;;;;;;;;;;;;21.64;31.76;98034.28;5042085;28;1208;-77
2023/10/01 10:39:39;;;;;;;;;;;;;;;21.73;31.36;98034.47;5041856;28;885;-76
2023/10/01 10:42:31;;;;;;;;;;;;;;;21.74;31.58;98032.41;5024982;28;1119;-77
2023/10/01 10:45:22;;;;;;;;;;;;;;;21.77;31.35;98035.16;5017374;28;1173;-77
2023/10/01 10:48:03;;;;;;;;;;;;;;;21.76;31.25;98030.75;5001708;28;943;-77
2023/10/01 10:50:50;;;;;;;;;;;;;;;21.93;31.15;98042.03;5001962;28;946;-77
2023/10/01 10:53:15;;;;;;;;;;;;;;;21.64;31.68;98025.78;5016848;28;1914;-77
2023/10/01 10:56:17;;;;;;;;;;;;;;;21.63;31.55;98035.53;5000886;28;1080;-77
2023/10/01 10:58:45;;;;;;;;;;;;;;;21.75;31.43;98037.63;5003139;28;1055;-77
2023/10/01 11:01:21;;;;;;;;;;;;;;;21.66;31.57;98034.66;5016653;28;1068;-77
2023/10/01 11:03:47;;;;;;;;;;;;;;;21.58;31.76;98027.56;5001593;28;1022;-77
2023/10/01 11:06:15;;;;;;;;;;;;;;;21.45;31.79;98027.53;4997487;28;1200;-78
2023/10/01 11:08:49;;;;;;;;;;;;;;;21.49;32.08;98024.56;4997024;28;1100;-77
2023/10/01 11:11:18;;;;;;;;;;;;;;;21.66;31.76;98037.50;4982427;28;1906;-77
2023/10/01 11:13:45;;;;;;;;;;;;;;;21.52;31.60;98035.81;4961293;28;1090;-77
2023/10/01 11:16:16;;;;;;;;;;;;;;;21.76;31.27;98033.59;4984701;28;1015;-77
2023/10/01 11:18:44;;;;;;;;;;;;;;;21.93;31.13;98025.03;5000757;28;962;-77
2023/10/01 11:21:20;;;;;;;;;;;;;;;21.67;31.38;98019.25;5017145;28;912;-77
2023/10/01 11:23:47;;;;;;;;;;;;;;;21.76;31.08;98024.25;5000696;28;1259;-77
2023/10/01 11:26:26;;;;;;;;;;;;;;;21.63;31.71;98024.22;5000616;28;1051;-77
2023/10/01 11:28:57;;;;;;;;;;;;;;;21.68;31.56;98018.00;5001852;28;953;-77
2023/10/01 11:31:23;;;;;;;;;;;;;;;21.96;30.94;98018.47;5016419;28;1902;-76
2023/10/01 11:33:58;;;;;;;;;;;;;;;21.87;31.12;98021.16;5000326;28;1135;-77
2023/10/01 11:36:24;;;;;;;;;;;;;;;21.61;31.72;98015.38;5016741;28;1000;-77
2023/10/01 11:38:50;;;;;;;;;;;;;;;21.74;31.43;98018.25;4999999;28;1059;-77
2023/10/01 11:41:18;;;;;;;;;;;;;;;21.63;31.40;98012.88;5015841;28;1073;-77
2023/10/01 11:43:52;;;;;;;;;;;;;;;21.66;31.47;98020.50;5002238;28;1270;-77
2023/10/01 11:46:24;;;;;;;;;;;;;;;21.69;31.53;98016.75;5017209;28;1211;-77
2023/10/01 11:49:02;;;;;;;;;;;;;;;21.62;31.81;98010.50;4977084;28;1088;-77
2023/10/01 11:51:54;;;;;;;;;;;;;;;21.69;31.67;98011.09;4977287;28;1903;-77
2023/10/01 11:54:25;;;;;;;;;;;;;;;21.63;31.78;98012.09;4960919;28;978;-77
2023/10/01 11:57:04;;;;;;;;;;;;;;;21.92;31.37;98012.13;4977299;28;994;-77
2023/10/01 11:59:30;;;;;;;;;;;;;;;21.90;31.32;98014.59;4976776;28;1004;-77
2023/10/01 12:01:56;;;;;;;;;;;;;;;21.74;31.47;98024.72;4944861;28;1288;-77
2023/10/01 12:07:18;;;;;;;;;;;;;;;21.65;31.73;98016.06;4913050;29;1257;-77
2023/10/01 12:09:50;;;;;;;;;;;;;;;21.79;31.35;98018.50;4915562;29;1182;-77
2023/10/01 12:12:39;;;;;;;;;;;;;;;21.45;32.06;98015.38;4915584;29;1982;-77
2023/10/01 12:17:52;;;;;;;;;;;;;;;21.78;31.25;98014.09;4913392;29;1015;-77
2023/10/01 12:20:23;;;;;;;;;;;;;;;21.79;31.02;98012.84;4906339;29;953;-77
2023/10/01 12:25:53;;;;;;;;;;;;;;;21.78;31.50;98008.44;4893816;29;1302;-77
2023/10/01 12:28:27;;;;;;;;;;;;;;;21.82;31.38;98003.47;4894916;29;1088;-77
2023/10/01 12:31:01;;;;;;;;;;;;;;;21.82;31.49;98003.47;4896633;29;1352;-77
2023/10/01 12:33:47;;;;;;;;;;;;;;;21.88;31.28;98000.09;4880958;29;1026;-77
2023/10/01 12:36:32;;;;;;;;;;;;;;;21.77;31.37;98003.22;4894942;29;1224;-77
2023/10/01 12:41:47;;;;;;;;;;;;;;;21.46;31.92;97997.16;4899733;29;1259;-77
2023/10/01 12:44:25;;;;;;;;;;;;;;;21.58;31.81;97988.72;4909128;29;1085;-77
2023/10/01 12:47:00;;;;;;;;;;;;;;;22.00;30.82;97990.84;4904029;29;1225;-77
2023/10/01 12:49:32;;;;;;;;;;;;;;;21.83;31.22;97998.59;4899421;29;1040;-77
2023/10/01 12:51:57;;;;;;;;;;;;;;;21.84;31.20;97995.31;4883030;29;1990;-77
2023/10/01 12:54:26;;;;;;;;;;;;;;;21.95;30.91;98005.53;4934289;29;1203;-77
2023/10/01 12:57:12;;;;;;;;;;;;;;;21.58;31.52;98002.09;4933845;29;1026;-77
2023/10/01 12:59:39;;;;;;;;;;;;;;;21.73;31.45;97996.84;4932141;29;1137;-77
2023/10/01 13:05:16;;;;;;;;;;;;;;;21.58;31.46;97993.59;4957449;28;1051;-77
2023/10/01 13:07:37;;;;;;;;;;;;;;;21.70;31.38;97984.38;4975872;28;960;-77
2023/10/01 13:10:06;;;;;;;;;;;;;;;21.62;31.56;97988.66;4975557;28;1060;-77
2023/10/01 13:12:38;;;;;;;;;;;;;;;21.53;31.47;97992.09;4959714;28;1902;-76
2023/10/01 13:15:16;;;;;;;;;;;;;;;21.72;31.25;98000.94;4962735;28;1227;-77
2023/10/01 13:17:46;;;;;;;;;;;;;;;21.88;30.93;97997.25;4983235;28;1289;-77
2023/10/01 13:20:28;;;;;;;;;;;;;;;21.75;31.25;97997.97;5007688;28;1289;-77
2023/10/01 13:22:59;;;;;;;;;;;;;;;21.76;31.18;97993.94;4997288;28;1286;-77
2023/10/01 13:25:26;;;;;;;;;;;;;;;21.60;31.52;97985.44;4997419;28;1282;-77
2023/10/01 13:28:07;;;;;;;;;;;;;;;21.71;31.37;97991.63;4997567;28;1368;-77
2023/10/01 13:31:03;;;;;;;;;;;;;;;21.58;31.36;97993.59;4997843;28;1251;-76
2023/10/01 13:36:47;;;;;;;;;;;;;;;21.62;31.67;97988.66;4956130;29;1515;-76
2023/10/01 14:09:46;;;;;;;;;;;;;;;21.71;31.19;97988.81;4994641;28;807;-76
2023/10/01 14:12:09;;;;;;;;;;;;;;;21.74;31.38;97987.91;5002452;28;1910;-76
2023/10/01 14:14:34;;;;;;;;;;;;;;;21.75;31.13;97986.66;5036278;28;888;-76
2023/10/01 14:17:13;;;;;;;;;;;;;;;21.74;31.32;97990.72;5018182;28;1017;-76
2023/10/01 14:19:42;;;;;;;;;;;;;;;21.68;31.26;97981.19;5019862;28;990;-76
2023/10/01 14:22:19;;;;;;;;;;;;;;;21.71;31.24;97991.63;5034733;28;936;-76
2023/10/01 14:24:48;;;;;;;;;;;;;;;21.74;31.16;97996.41;5035739;28;928;-76
2023/10/01 14:27:24;;;;;;;;;;;;;;;21.66;31.53;97989.34;5033686;28;1351;-76
2023/10/01 14:30:23;;;;;;;;;;;;;;;21.44;31.76;97993.97;5018422;28;1051;-76
2023/10/01 14:32:51;;;;;;;;;;;;;;;21.75;31.24;97997.97;5021366;28;1976;-76